sensor_id;sensor_type;location;lat;lon;timestamp;temperature;humidity
752;DHT22;360;48.764;9.164;2023-02-20T15:30:33;9.80;1.00
752;DHT22;360;48.764;9.164;2023-02-20T15:33:00;19.30;1.00
752;DHT22;360;48.764;9.164;2023-02-20T15:35:29;19.40;1.00
752;DHT22;360;48.764;9.164;2023-02-20T15:38:01;20.40;1.00
752;DHT22;360;48.764;9.164;2023-02-20T15:40:29;21.30;1.00
752;DHT22;360;48.764;9.164;2023-02-20T15:42:56;21.70;1.00
752;DHT22;360;48.764;9.164;2023-02-20T15:45:26;22.40;1.00
752;DHT22;360;48.764;9.164;2023-02-20T15:47:53;22.90;1.00
752;DHT22;360;48.764;9.164;2023-02-20T15:50:20;23.00;1.00
752;DHT22;360;48.764;9.164;2023-02-20T15:52:47;22.90;1.00
752;DHT22;360;48.764;9.164;2023-02-20T15:55:16;23.20;1.00
752;DHT22;360;48.764;9.164;2023-02-20T15:57:46;23.10;1.00
752;DHT22;360;48.764;9.164;2023-02-20T16:00:18;23.20;1.00
752;DHT22;360;48.764;9.164;2023-02-20T16:02:46;23.40;1.00
752;DHT22;360;48.764;9.164;2023-02-20T16:05:13;23.40;1.00
752;DHT22;360;48.764;9.164;2023-02-20T16:07:40;23.20;1.00
752;DHT22;360;48.764;9.164;2023-02-20T16:10:07;22.90;1.00
752;DHT22;360;48.764;9.164;2023-02-20T16:12:36;23.10;1.00
752;DHT22;360;48.764;9.164;2023-02-20T16:15:05;22.80;1.00
752;DHT22;360;48.764;9.164;2023-02-20T16:17:33;22.80;1.00
752;DHT22;360;48.764;9.164;2023-02-20T16:20:00;22.50;1.00
752;DHT22;360;48.764;9.164;2023-02-20T16:22:27;22.40;1.00
752;DHT22;360;48.764;9.164;2023-02-20T16:24:54;22.40;1.00
752;DHT22;360;48.764;9.164;2023-02-20T16:27:23;21.50;1.00
752;DHT22;360;48.764;9.164;2023-02-20T16:29:52;19.60;1.00
752;DHT22;360;48.764;9.164;2023-02-20T16:34:49;18.40;1.00
752;DHT22;360;48.764;9.164;2023-02-20T16:37:17;17.10;1.00
752;DHT22;360;48.764;9.164;2023-02-20T16:39:44;16.70;1.00
752;DHT22;360;48.764;9.164;2023-02-20T16:45:05;15.80;1.00
752;DHT22;360;48.764;9.164;2023-02-20T16:47:32;15.50;1.00
752;DHT22;360;48.764;9.164;2023-02-20T16:49:59;15.20;1.00
752;DHT22;360;48.764;9.164;2023-02-20T16:52:33;14.70;1.00
752;DHT22;360;48.764;9.164;2023-02-20T16:55:00;14.50;1.00
752;DHT22;360;48.764;9.164;2023-02-20T16:57:28;14.40;1.00
752;DHT22;360;48.764;9.164;2023-02-20T16:59:56;14.20;1.00
752;DHT22;360;48.764;9.164;2023-02-20T17:02:27;14.20;1.00
752;DHT22;360;48.764;9.164;2023-02-20T17:17:11;14.00;1.00
752;DHT22;360;48.764;9.164;2023-02-20T17:19:41;13.10;1.00
752;DHT22;360;48.764;9.164;2023-02-20T17:22:09;12.90;1.00
752;DHT22;360;48.764;9.164;2023-02-20T17:24:38;12.80;1.00
752;DHT22;360;48.764;9.164;2023-02-20T17:27:05;12.50;1.00
752;DHT22;360;48.764;9.164;2023-02-20T17:29:32;12.60;1.00
752;DHT22;360;48.764;9.164;2023-02-20T17:31:59;12.30;1.00
752;DHT22;360;48.764;9.164;2023-02-20T17:34:26;12.20;1.00
752;DHT22;360;48.764;9.164;2023-02-20T17:36:54;11.80;1.00
752;DHT22;360;48.764;9.164;2023-02-20T17:39:22;11.80;1.00
752;DHT22;360;48.764;9.164;2023-02-20T17:41:49;11.80;1.00
752;DHT22;360;48.764;9.164;2023-02-20T17:44:19;11.70;1.00
752;DHT22;360;48.764;9.164;2023-02-20T17:46:46;11.70;1.00
752;DHT22;360;48.764;9.164;2023-02-20T17:49:14;11.60;1.00
752;DHT22;360;48.764;9.164;2023-02-20T17:51:41;11.50;1.00
752;DHT22;360;48.764;9.164;2023-02-20T17:54:10;11.50;1.00
752;DHT22;360;48.764;9.164;2023-02-20T17:56:39;11.30;1.00
752;DHT22;360;48.764;9.164;2023-02-20T17:59:06;11.20;1.00
752;DHT22;360;48.764;9.164;2023-02-20T18:01:32;11.00;1.00
752;DHT22;360;48.764;9.164;2023-02-20T18:03:59;10.80;1.00
752;DHT22;360;48.764;9.164;2023-02-20T18:06:28;10.80;1.00
752;DHT22;360;48.764;9.164;2023-02-20T18:08:55;10.50;1.00
752;DHT22;360;48.764;9.164;2023-02-20T18:11:24;10.60;1.00
752;DHT22;360;48.764;9.164;2023-02-20T18:13:52;10.50;1.00
752;DHT22;360;48.764;9.164;2023-02-20T18:16:18;10.50;1.00
752;DHT22;360;48.764;9.164;2023-02-20T18:18:45;10.30;1.00
752;DHT22;360;48.764;9.164;2023-02-20T23:52:35;10.20;1.00
752;DHT22;360;48.764;9.164;2023-02-20T23:55:19;5.00;99.90
752;DHT22;360;48.764;9.164;2023-02-20T23:58:03;4.90;99.90
